Timeline UpdatesTrip UpdatesNews PostsPvt Posts♥♥Travel TipsAdmin PostsConv PostsFollowed PostsChat RequestsBlog PostsPNR Posts

Disclaimer
Search
 
 
Sun Dec 21, 2014 08:51:56 ISTHomeTrainsΣChainsAtlasPNRForumGalleryNewsFAQTripsMembersLoginFeedback
No Recent News for this Train
Other Trains in the News **new
Latest...
⇐ Return Journey: Train# 54378

54377/Prayag-Bareilly Passenger (UnReserved)

Time-Table HAS CHANGED.
Sep 03 2014 (9:27AM)
Change Departure Station:
Change Arrival Station:
Post a Train Travel TipPost a Train Travel Tip **new
Post a Comment/Question/Picture/VideoPost a Comment/Question/Picture/Video
Pantry/Catering
???
RSA - Rake Sharing
Rake/Coach Composition
Loco
News    PNR    Forum    Time-Table    Availability    Fare Chart    Map    Arr/Dep History    Trips    Gallery    ΣChains    X/O    Timeline    
Travel Time: 1h 46m    3 halts    Distance: 28 km    Avg Speed: 15 km/hr
Type: Passenger
Zone: NR/Northern
Departs @ 14:04 (Avg 2h 53m late)
Platform# ???
SMTWTFS
Tisua/TSA 
Arrives @ 15:50 (Avg 2h 19m late)
Platform# 3
SMTWTFS
Bareilly Junction/BE 

3 halts. 3 intermediate Stations between Tisua and Bareilly Junction

Show ALL intermediate Stations  Show Old Time-Table

#TrkCodeStation NameX/OArrivesAvgDepartsAvgHaltPFDay#KmSpeedElevZoneAddress
1|--|ARPAtrampur  02:25 01:01+1:2302:26 01:03+1:231 2m--1-380.253105mNRAtrampur Railway Station, Uttar Pradesh
2%--%RMCRam Chaura Road  02:34 01:11+1:2502:35 01:13+1:251 2m--1-373.152103mNRAnapur - Mansurabad Road, Uttar Pradesh
3%--%LGOLalgopalGanj  02:43 01:21+1:2602:44 01:23+1:261 2m--1-366.255104mNRLal Gopalganj, Uttar Pradesh
4%--%BHDRBhadri  02:52 01:31+1:2702:53 01:33+1:261 2m--1-358.943106mNRNational Highway 24B, Uttar Pradesh
5%--%KHNMKunda Harnamganj (2)  03:02 01:43+1:2503:03 01:45+1:251 2m--1-351.747110mNRKunda, Uttar Pradesh
6%--%GRMRGarhi Manikpur (2)  03:15 02:00+1:2403:16 02:02+1:241 2m--1-339.939113mNRGarhi Manikpur, Uttar Pradesh
7%--%PQNPariawan Kalakankar Road (2)  03:25 02:13+1:2303:26 02:15+1:231 2m--1-332.843115mNRPwn Klaknder Rd, Uttar Pradesh
8%--|ARKAArkha  03:35 02:27+1:2203:36 02:29+1:211 2m--1-324.115115mNRLucknow Allahabad Rd, Uttar Pradesh
9|--|UCRUnchahar Junction  03:44 02:38+1:1103:45 02:40+1:141 2m--1-321.852116mNRUnchahar, Uttar Pradesh
10|--|RCPRamachandrapur  03:56 02:53-03:57 02:55-1 2m--1-310.628114mNRLucknow Allahabad Rd, Uttar Pradesh
11|--|LMNLachhmanpurX  04:05 03:08+1:0604:06 03:10+1:171 2m--1-304.732119mNRUnchahar, Uttar Pradesh
12|--|DYPDaryapur Junction  04:19 03:38+1:0504:20 03:40+1:111 2m--1-289.918115mNRNational Highway 24B, Uttar Pradesh
13|--|RBLRae Bareli Junction (4)X  04:35 04:00+1:0004:40 04:33+485 33m--1-284.046116mNRRaebareli, Uttar Pradesh
14!==!GANGGangaGanj (2)  04:51 04:43+5304:52 04:45+551 2m--1-276.360118mNRBachhrawan, Uttar Pradesh
15!==!HCPHarchandpur (3)  04:58 04:52+5704:59 04:54+1:001 2m--1-269.342118mNRRae Bareli, Uttar Pradesh
16!==!KVGKundanganj (2)  05:07 05:03+1:0005:08 05:05+1:021 2m--1-262.952119mNRHarchandpur, Uttar Pradesh
17!==!BCNBachhrawan (2)X  05:19 05:16+1:0305:20 05:18+1:071 2m--1-253.414124mNRLucknow, Uttar Pradesh
18!==!SAGRShrirajnagar (1)X  05:44 05:43+5105:45+1:011 2m11-247.720122mNRMohanlalGanj, Uttar Pradesh
19!==!NHNNigohan (1)X  06:04 06:03+5306:05+1:001 2m11-241.719120mNRLucknow, Uttar Pradesh
20!==!KKAHKankaha (1)  06:28 06:27+4906:29+591 2m11-234.840125mNRBachhrawan, Uttar Pradesh
21!==!MLJMohanlalGanj (1)  06:42 06:41+5806:43+1:021 2m11-226.832124mNRMohanlalganj, Uttar Pradesh
22!==/UTRUtraitia Junction (2)  07:00 06:59+1:0007:01+1:131 2m--1-218.319124mNRLucknow, Uttar Pradesh
23/==/BHAWBlock Hut A new halt!!X  07:15+1:1107:17+1:112m--1-213.819121mNRLucknow, Uttar Pradesh
24/==/LBHDilkusha Cabin new halt!!O  07:28+1:3507:30+1:352m--1-210.317122mNRLucknow, Uttar Pradesh
25/==/LKOLucknow Charbagh NR (9)XO  07:45+5408:20+5135m51-206.123124mNRLucknow 226004, Uttar Pradesh
26/==/AMGAlamnagar (3)X  08:37 08:38+1:3408:38 08:39+1:361m--1-199.165126mNRLucknow, Uttar Pradesh
27/==/KKJKakori (3)X  08:47 08:46+1:4608:48+1:521 2m--1-191.664129mNRSH 25, Uttar Pradesh
28/==/MLDMalihabadX  08:58 08:57+1:5408:59+2:001 2m--1-181.949130mNRMalihabad, Uttar Pradesh
29/==/DILDilawarnagarX  09:07 09:06+2:0009:08+2:001 2m--1-176.246133mNRSH 25, Uttar Pradesh
30/==/RBDRahimabadX  09:17 09:18+2:1109:18 09:20+2:161 2m--1-168.666132mNRSH 25, Uttar Pradesh
31/==/SANSandila (3)  09:29 09:30+2:1709:30 09:32+2:171 2m--1-157.645132mNRSandila, Uttar Pradesh
32/==/UTAUmar TaliO  09:36 09:39+2:1609:37 09:41+2:161 2m--1-152.348135mNRHardoi, Uttar Pradesh
33/==/DLQDalelnagar  09:46 09:49+2:1509:47 09:51+2:191 2m--1-145.952136mNRSH 25, Uttar Pradesh
34/==/BLMBalamau Junction (4)X  09:53 10:01+2:1909:58 10:06+2:215m--1-137.358139mNRBalamau, Uttar Pradesh
35/==/BGHBaghauliX  10:11 10:15+2:2210:12 10:17+2:271 2m--1-128.652141mNRsharda nehar, Uttar Pradesh
36/==/MSTMasit  10:21 10:25+2:1410:22 10:27+2:161 2m--1-121.656141mNRSH 25, Uttar Pradesh
37/==/KARKarnaX  10:31 10:35+2:1710:32 10:37+2:181 2m--1-114.159143mNRHardoi, Uttar Pradesh
38/==/HRIHardoi (5)  10:43 10:47+1:3010:44 10:52+1:311 5m--1-104.356146mNRHardoi, Uttar Pradesh
39/==/KUFKaurhaX  10:57 11:01+2:2610:58 11:03+2:261 2m--1-95.959148mNRSH 25, Uttar Pradesh
40/==/BEGBehtagokul  11:08 11:12+2:2711:09 11:14+2:331 2m--1-87.055152mNRBehtagokul, Uttar Pradesh
41/==/TDPTodarpur  11:17 11:21+2:3511:18 11:23+2:351 2m--1-80.631147mNRSH 25, Uttar Pradesh
42/==/SHRMSharmaX  11:24 11:28-11:25 11:29-1m--1-78.051150mNRSH 25, Uttar Pradesh
43/==/AJIAnjhi Shahabad  11:32 11:36+2:1711:33 11:38+2:181 2m--1-72.154148mNRAnjhi Shahabad, Uttar Pradesh
44/==/AIGAlgawan  11:41 11:45+2:3511:42 11:47+2:351 2m--1-65.864152mNRAlgawan, Uttar Pradesh
45/==/KHKahiliya  11:51 11:55+2:3811:52 11:57+2:381 2m--1-57.344152mNRSH 25, Uttar Pradesh
46/==/PRPMPt Ram Prasad Bismil new halt!!  12:03+2:3912:04+2:441m--1-52.98154mNRState Highway 25, Uttar Pradesh
47/==/ROZARoza Junction (4)X  12:36 12:37+2:1812:37 12:39+2:441 2m--1-48.748156mNRShahjahanpur, Uttar Pradesh
48/==/SXKShahjahanpur CourtX  12:45 12:46-12:46 12:47-1m--1-43.17160mNRShahjahanpur, Uttar Pradesh
49/==/SPNShahjahanpur Junction (5)X  12:55+1:5613:00+1:565m--1-42.156156mNRShahjahanpur, Uttar Pradesh
50/==/BTRABanthra  13:09+2:4813:10 13:11+2:511 2m--1-33.742154mNRNH 24, Uttar Pradesh
51/==/BHDHBahadurpur HaltX  13:17 13:19-13:18 13:20-1m--1-28.135154mNRNH 24, Uttar Pradesh
52/==/TLHTilhar  13:25 13:27+2:4613:26 13:29+2:481 2m--1-24.058163mNRTilhar, Uttar Pradesh
53/==/MKMiranpur Katra  13:36 13:39+2:5013:37 13:41+2:541 2m--1-14.239162mNRShahjahanpur, Uttar Pradesh
54/==/BLPUBilpur  13:46 13:52+2:5413:47 13:54+2:541 2m--1-7.047161mNRFatehganj, Uttar Pradesh
55/==/TSATisua»XO  13:56 14:03+2:5213:57 14:04+2:531m--10.051165mNRNational Highway 24, Uttar Pradesh
56/==/PMRPitambarpur (3)  14:07 14:14+2:5514:08 14:16+3:061 2m--18.557171mNRPitambarpur, Uttar Pradesh
57/==/RYSRasuriya  14:18 14:26+3:0814:19 14:28+3:081 2m--118.050174mNRNH 24, Uttar Pradesh
58/==/CHTIChanehti Junction  14:28 14:36+2:2314:29 14:38+2:231 2m--124.63168mNRBareilly, Uttar Pradesh
59/==/BEBareilly Junction (4)•  15:10 15:50+2:19-3128.4-174mNRBareilly, Uttar Pradesh
Scroll to Top
Scroll to Bottom


Go to Mobile site